createdAt,value
2022-08-11T00:00:36.577Z,24.31
2022-08-11T00:03:46.050Z,24.32
2022-08-11T00:06:49.142Z,24.32
2022-08-11T00:09:53.017Z,24.32
2022-08-11T00:13:00.761Z,24.31
2022-08-11T00:16:10.966Z,24.32
2022-08-11T00:19:20.332Z,24.32
2022-08-11T00:22:45.732Z,24.27
2022-08-11T00:25:52.197Z,24.32
2022-08-11T00:28:56.865Z,24.32
2022-08-11T00:32:03.139Z,24.31
2022-08-11T00:35:54.361Z,24.29
2022-08-11T00:38:33.274Z,24.29
2022-08-11T00:42:24.911Z,24.28
2022-08-11T00:45:35.630Z,24.28
2022-08-11T00:48:58.149Z,24.28
2022-08-11T00:52:21.182Z,24.27
2022-08-11T00:55:54.570Z,24.27
2022-08-11T00:59:35.555Z,24.26
2022-08-11T01:02:58.286Z,24.26
2022-08-11T01:06:21.417Z,24.26
2022-08-11T01:09:45.510Z,24.26
2022-08-11T01:13:18.841Z,24.26
2022-08-11T01:16:50.225Z,24.26
2022-08-11T01:20:45.452Z,24.27
2022-08-11T01:23:58.154Z,24.26
2022-08-11T01:27:34.055Z,24.26
2022-08-11T01:30:54.461Z,24.23
2022-08-11T01:34:21.070Z,24.23
2022-08-11T01:37:23.138Z,24.21
2022-08-11T01:40:53.067Z,24.17
2022-08-11T01:44:31.244Z,24.19
2022-08-11T01:47:53.405Z,24.19
2022-08-11T01:51:17.505Z,24.18
2022-08-11T01:54:27.439Z,24.19
2022-08-11T01:57:35.468Z,24.19
2022-08-11T02:00:54.509Z,24.19
2022-08-11T02:04:18.465Z,24.20
2022-08-11T02:08:18.995Z,24.19
2022-08-11T02:11:34.469Z,24.12
2022-08-11T02:15:05.388Z,24.13
2022-08-11T02:18:54.755Z,24.14
2022-08-11T02:22:25.665Z,24.13
2022-08-11T02:25:38.374Z,24.12
2022-08-11T02:28:45.085Z,24.10
2022-08-11T02:32:31.141Z,24.03
2022-08-11T02:36:00.970Z,23.81
2022-08-11T02:39:11.415Z,23.81
2022-08-11T02:42:36.130Z,23.89
2022-08-11T02:45:54.845Z,23.94
2022-08-11T02:49:24.236Z,23.98
2022-08-11T02:52:32.131Z,23.98
2022-08-11T02:56:08.925Z,23.98
2022-08-11T02:59:53.045Z,23.79
2022-08-11T03:03:18.797Z,23.81
2022-08-11T03:06:38.907Z,23.92
2022-08-11T03:09:49.644Z,23.87
2022-08-11T03:13:16.337Z,23.80
2022-08-11T03:16:47.119Z,23.82
2022-08-11T03:20:10.857Z,23.83
2022-08-11T03:23:31.429Z,23.79
2022-08-11T03:26:47.383Z,23.70
2022-08-11T03:30:04.835Z,23.75
2022-08-11T03:33:47.330Z,23.81
2022-08-11T03:37:15.388Z,23.78
2022-08-11T03:40:44.296Z,23.85
2022-08-11T03:43:58.381Z,23.92
2022-08-11T03:47:09.756Z,23.95
2022-08-11T03:50:45.621Z,23.89
2022-08-11T03:54:18.801Z,23.84
2022-08-11T03:57:50.214Z,23.90
2022-08-11T04:01:20.280Z,23.92
2022-08-11T04:05:00.056Z,23.93
2022-08-11T04:08:15.978Z,23.94
2022-08-11T04:11:41.361Z,23.83
2022-08-11T04:15:20.603Z,23.88
2022-08-11T04:19:01.068Z,23.88
2022-08-11T04:22:18.106Z,23.86
2022-08-11T04:26:16.102Z,23.86
2022-08-11T04:30:03.914Z,23.68
2022-08-11T04:33:09.595Z,23.76
2022-08-11T04:36:58.190Z,23.91
2022-08-11T04:40:30.636Z,23.90
2022-08-11T04:44:06.407Z,23.87
2022-08-11T04:48:03.321Z,23.85
2022-08-11T04:51:45.041Z,23.90
2022-08-11T04:55:33.679Z,23.85
2022-08-11T04:59:01.041Z,23.93
2022-08-11T05:02:17.545Z,24.02
2022-08-11T05:05:56.873Z,24.08
2022-08-11T05:09:13.006Z,24.00
2022-08-11T05:12:51.876Z,24.03
2022-08-11T05:16:14.872Z,23.89
2022-08-11T05:19:39.662Z,23.58
2022-08-11T05:23:10.596Z,23.59
2022-08-11T05:26:45.981Z,23.10
2022-08-11T05:30:21.631Z,23.24
2022-08-11T05:33:55.128Z,23.44
2022-08-11T05:37:26.647Z,23.54
2022-08-11T05:40:51.163Z,23.59
2022-08-11T05:44:19.932Z,23.60
2022-08-11T05:47:46.332Z,23.61
2022-08-11T05:51:11.768Z,23.68
2022-08-11T05:54:37.661Z,23.85
2022-08-11T05:57:50.818Z,23.71
2022-08-11T06:00:54.240Z,23.68
2022-08-11T06:04:16.965Z,23.68
2022-08-11T06:07:27.027Z,23.77
2022-08-11T06:10:34.612Z,23.72
2022-08-11T06:13:44.904Z,23.74
2022-08-11T06:16:53.503Z,23.71
2022-08-11T06:20:06.795Z,23.68
2022-08-11T06:23:11.423Z,23.76
2022-08-11T06:26:15.008Z,23.90
2022-08-11T06:29:18.687Z,23.89
2022-08-11T06:32:25.582Z,23.84
2022-08-11T06:35:48.430Z,23.79
2022-08-11T06:39:11.906Z,23.86
2022-08-11T06:42:33.018Z,23.77
2022-08-11T06:45:42.189Z,23.78
2022-08-11T06:48:45.458Z,23.89
2022-08-11T06:51:48.459Z,23.96
2022-08-11T06:55:05.640Z,23.99
2022-08-11T06:58:35.050Z,23.89
2022-08-11T07:01:49.398Z,23.72
2022-08-11T07:04:54.546Z,23.66
2022-08-11T07:09:04.329Z,23.73
2022-08-11T07:13:06.179Z,23.87
2022-08-11T07:16:14.032Z,23.84
2022-08-11T07:19:40.771Z,23.83
2022-08-11T07:23:11.630Z,23.86
2022-08-11T07:26:32.392Z,23.99
2022-08-11T07:29:36.889Z,24.00
2022-08-11T07:32:50.341Z,24.08
2022-08-11T07:35:56.929Z,24.00
2022-08-11T07:39:00.504Z,24.07
2022-08-11T07:42:09.119Z,24.04
2022-08-11T07:45:30.843Z,24.03
2022-08-11T07:48:53.323Z,24.03
2022-08-11T07:52:14.548Z,24.06
2022-08-11T07:55:19.718Z,24.17
2022-08-11T07:58:45.174Z,24.17
2022-08-11T08:02:10.727Z,24.19
2022-08-11T08:05:33.171Z,24.18
2022-08-11T08:08:56.000Z,24.06
2022-08-11T08:12:19.365Z,24.14
2022-08-11T08:15:41.144Z,24.18
2022-08-11T08:18:44.470Z,24.23
2022-08-11T08:21:48.631Z,24.27
2022-08-11T08:24:52.174Z,24.27
2022-08-11T08:27:56.574Z,24.32
2022-08-11T08:30:59.059Z,24.32
2022-08-11T08:34:01.560Z,24.31
2022-08-11T08:37:15.846Z,24.36
2022-08-11T08:40:28.349Z,24.38
2022-08-11T08:43:48.446Z,24.32
2022-08-11T08:46:56.599Z,24.38
2022-08-11T08:50:05.683Z,24.41
2022-08-11T08:53:08.882Z,24.41
2022-08-11T08:56:11.919Z,24.30
2022-08-11T08:59:15.957Z,24.32
2022-08-11T09:02:33.607Z,24.31
2022-08-11T09:05:37.612Z,24.36
2022-08-11T09:08:41.005Z,24.33
2022-08-11T09:11:50.872Z,24.27
2022-08-11T09:15:06.386Z,24.35
2022-08-11T09:18:11.143Z,24.42
2022-08-11T09:21:15.603Z,24.48
2022-08-11T09:24:57.975Z,24.44
2022-08-11T09:28:01.561Z,24.53
2022-08-11T09:31:06.273Z,24.60
2022-08-11T09:34:13.991Z,24.78
2022-08-11T09:37:55.452Z,24.64
2022-08-11T09:40:58.377Z,24.80
2022-08-11T09:44:20.452Z,24.80
2022-08-11T09:47:28.635Z,24.84
2022-08-11T09:50:32.995Z,24.91
2022-08-11T09:53:41.235Z,24.91
2022-08-11T09:57:05.288Z,24.85
2022-08-11T10:00:12.306Z,24.88
2022-08-11T10:03:22.161Z,24.91
2022-08-11T10:06:44.434Z,24.98
2022-08-11T10:09:59.075Z,25.00
2022-08-11T10:14:03.836Z,25.05
2022-08-11T10:16:30.894Z,25.03
2022-08-11T10:19:36.300Z,24.96
2022-08-11T10:22:59.151Z,24.95
2022-08-11T10:26:22.084Z,25.07
2022-08-11T10:29:57.966Z,25.20
2022-08-11T10:33:37.526Z,25.21
2022-08-11T10:36:50.801Z,25.21
2022-08-11T10:39:56.472Z,25.11
2022-08-11T10:43:07.149Z,25.17
2022-08-11T10:46:30.332Z,25.16
2022-08-11T10:49:33.435Z,25.10
2022-08-11T10:52:56.185Z,25.17
2022-08-11T10:56:18.314Z,25.16
2022-08-11T10:59:21.181Z,25.18
2022-08-11T11:02:24.322Z,25.33
2022-08-11T11:05:31.572Z,25.42
2022-08-11T11:09:00.200Z,25.42
2022-08-11T11:12:43.809Z,25.36
2022-08-11T11:16:06.643Z,25.37
2022-08-11T11:19:11.371Z,25.37
2022-08-11T11:22:34.565Z,25.45
2022-08-11T11:26:14.903Z,25.43
2022-08-11T11:29:53.158Z,25.48
2022-08-11T11:33:11.205Z,25.54
2022-08-11T11:36:32.810Z,25.56
2022-08-11T11:39:36.855Z,25.49
2022-08-11T11:42:41.643Z,25.46
2022-08-11T11:45:44.568Z,25.42
2022-08-11T11:48:47.737Z,25.42
2022-08-11T11:51:55.261Z,25.43
2022-08-11T11:54:59.868Z,25.46
2022-08-11T11:58:22.409Z,25.57
2022-08-11T12:01:25.807Z,25.62
2022-08-11T12:04:29.120Z,25.72
2022-08-11T12:08:04.944Z,25.81
2022-08-11T12:11:31.944Z,25.83
2022-08-11T12:14:34.338Z,25.78
2022-08-11T12:17:36.765Z,25.73
2022-08-11T12:20:39.651Z,25.76
2022-08-11T12:24:04.463Z,25.76
2022-08-11T12:27:25.054Z,25.83
2022-08-11T12:30:28.278Z,25.88
2022-08-11T12:33:30.459Z,25.88
2022-08-11T12:36:36.995Z,25.91
2022-08-11T12:40:16.022Z,25.95
2022-08-11T12:43:57.185Z,25.98
2022-08-11T12:47:03.547Z,26.03
2022-08-11T12:50:24.968Z,26.10
2022-08-11T12:53:29.906Z,26.11
2022-08-11T12:56:59.951Z,26.13
2022-08-11T13:00:21.619Z,26.21
2022-08-11T13:03:43.440Z,26.22
2022-08-11T13:06:55.840Z,26.22
2022-08-11T13:10:02.765Z,26.24
2022-08-11T13:13:55.226Z,26.22
2022-08-11T13:16:32.560Z,26.16
2022-08-11T13:19:35.677Z,26.12
2022-08-11T13:22:38.821Z,26.16
2022-08-11T13:25:41.749Z,26.11
2022-08-11T13:28:46.264Z,26.05
2022-08-11T13:31:50.693Z,26.09
2022-08-11T13:34:53.330Z,26.08
2022-08-11T13:38:27.022Z,26.09
2022-08-11T13:41:41.865Z,26.10
2022-08-11T13:44:44.437Z,26.13
2022-08-11T13:47:46.939Z,26.09
2022-08-11T13:51:07.805Z,26.03
2022-08-11T13:54:12.268Z,26.12
2022-08-11T13:58:08.583Z,26.16
2022-08-11T14:00:38.799Z,26.18
2022-08-11T14:04:29.026Z,26.24
2022-08-11T14:07:22.851Z,26.20
2022-08-11T14:10:29.072Z,26.19
2022-08-11T14:13:42.582Z,26.17
2022-08-11T14:16:54.198Z,26.15
2022-08-11T14:19:57.831Z,26.14
2022-08-11T14:23:00.433Z,26.13
2022-08-11T14:26:21.646Z,26.11
2022-08-11T14:29:27.882Z,26.16
2022-08-11T14:32:30.397Z,26.14
2022-08-11T14:35:33.746Z,26.13
2022-08-11T14:38:38.381Z,26.20
2022-08-11T14:42:11.715Z,26.20
2022-08-11T14:45:58.166Z,26.22
2022-08-11T14:49:00.255Z,26.24
2022-08-11T14:52:07.995Z,26.30
2022-08-11T14:55:29.662Z,26.32
2022-08-11T14:58:34.000Z,26.25
2022-08-11T15:01:54.728Z,26.36
2022-08-11T15:05:00.044Z,26.33
2022-08-11T15:08:02.537Z,26.27
2022-08-11T15:11:24.806Z,26.23
2022-08-11T15:14:45.408Z,26.16
2022-08-11T15:17:49.390Z,26.13
2022-08-11T15:21:10.334Z,26.15
2022-08-11T15:24:21.787Z,26.15
2022-08-11T15:27:44.007Z,26.11
2022-08-11T15:31:11.649Z,26.01
2022-08-11T15:34:35.780Z,26.01
2022-08-11T15:37:40.567Z,26.03
2022-08-11T15:41:01.658Z,25.96
2022-08-11T15:44:51.444Z,25.92
2022-08-11T15:48:05.520Z,25.92
2022-08-11T15:51:25.058Z,25.93
2022-08-11T15:54:31.340Z,25.90
2022-08-11T15:57:53.387Z,25.78
2022-08-11T16:01:15.422Z,25.83
2022-08-11T16:04:21.034Z,25.79
2022-08-11T16:07:34.257Z,25.76
2022-08-11T16:10:44.880Z,25.74
2022-08-11T16:14:08.602Z,25.59
2022-08-11T16:17:15.392Z,25.65
2022-08-11T16:20:21.423Z,25.62
2022-08-11T16:23:28.343Z,25.59
2022-08-11T16:27:07.585Z,25.58
2022-08-11T16:30:00.495Z,25.55
2022-08-11T16:33:48.410Z,25.54
2022-08-11T16:36:49.309Z,25.52
2022-08-11T16:39:51.536Z,25.49
2022-08-11T16:43:13.776Z,25.50
2022-08-11T16:46:37.383Z,25.51
2022-08-11T16:49:50.612Z,25.48
2022-08-11T16:52:55.009Z,25.47
2022-08-11T16:56:03.257Z,25.30
2022-08-11T16:59:15.225Z,25.40
2022-08-11T17:02:38.405Z,25.40
2022-08-11T17:06:07.721Z,25.37
2022-08-11T17:09:31.591Z,25.32
2022-08-11T17:12:53.895Z,25.33
2022-08-11T17:16:07.389Z,25.26
2022-08-11T17:19:17.265Z,25.24
2022-08-11T17:22:41.929Z,25.21
2022-08-11T17:25:59.608Z,25.22
2022-08-11T17:29:10.743Z,25.21
2022-08-11T17:32:56.222Z,25.19
2022-08-11T17:36:03.443Z,25.12
2022-08-11T17:39:06.116Z,25.09
2022-08-11T17:42:28.409Z,25.09
2022-08-11T17:45:49.512Z,25.06
2022-08-11T17:48:51.988Z,25.08
2022-08-11T17:52:16.594Z,24.88
2022-08-11T17:55:52.104Z,25.01
2022-08-11T17:59:15.869Z,25.01
2022-08-11T18:02:43.873Z,24.98
2022-08-11T18:05:49.930Z,24.99
2022-08-11T18:09:12.183Z,24.97
2022-08-11T18:12:33.126Z,24.96
2022-08-11T18:15:56.485Z,24.96
2022-08-11T18:19:17.937Z,24.90
2022-08-11T18:22:53.686Z,24.92
2022-08-11T18:26:20.049Z,24.88
2022-08-11T18:29:42.311Z,24.87
2022-08-11T18:36:52.794Z,24.88
2022-08-11T18:40:35.019Z,24.82
2022-08-11T18:44:01.221Z,24.80
2022-08-11T18:47:30.726Z,24.70
2022-08-11T18:51:00.654Z,24.77
2022-08-11T18:54:38.426Z,24.64
2022-08-11T18:58:00.686Z,24.67
2022-08-11T19:01:25.577Z,24.60
2022-08-11T19:04:47.898Z,24.62
2022-08-11T19:08:10.795Z,24.64
2022-08-11T19:11:32.498Z,24.59
2022-08-11T19:14:54.224Z,24.53
2022-08-11T19:18:16.032Z,24.59
2022-08-11T19:21:37.281Z,24.55
2022-08-11T19:25:00.143Z,24.54
2022-08-11T19:28:25.933Z,24.44
2022-08-11T19:31:47.419Z,24.46
2022-08-11T19:35:09.258Z,24.45
2022-08-11T19:38:30.538Z,24.44
2022-08-11T19:41:57.562Z,24.47
2022-08-11T19:45:21.503Z,24.39
2022-08-11T19:48:45.735Z,24.38
2022-08-11T19:52:08.018Z,24.41
2022-08-11T19:55:29.370Z,24.40
2022-08-11T19:58:50.839Z,24.35
2022-08-11T20:02:14.076Z,24.42
2022-08-11T20:05:35.287Z,24.34
2022-08-11T20:09:00.424Z,24.33
2022-08-11T20:12:23.203Z,24.32
2022-08-11T20:15:46.599Z,24.32
2022-08-11T20:19:11.133Z,24.40
2022-08-11T20:22:34.845Z,24.37
2022-08-11T20:26:08.498Z,24.31
2022-08-11T20:29:38.108Z,24.34
2022-08-11T20:33:06.652Z,24.42
2022-08-11T20:36:28.898Z,24.42
2022-08-11T20:39:51.753Z,24.43
2022-08-11T20:43:16.730Z,24.43
2022-08-11T20:46:59.020Z,24.38
2022-08-11T20:50:21.457Z,24.44
2022-08-11T20:53:45.405Z,24.43
2022-08-11T20:57:11.330Z,24.44
2022-08-11T21:00:39.157Z,24.43
2022-08-11T21:04:00.782Z,24.30
2022-08-11T21:07:39.371Z,24.32
2022-08-11T21:11:05.942Z,24.29
2022-08-11T21:14:31.091Z,24.33
2022-08-11T21:18:00.813Z,24.28
2022-08-11T21:21:30.182Z,24.34
2022-08-11T21:25:07.006Z,24.24
2022-08-11T21:28:29.775Z,24.41
2022-08-11T21:31:52.664Z,24.41
2022-08-11T21:35:15.280Z,24.25
2022-08-11T21:38:36.480Z,24.38
2022-08-11T21:41:58.587Z,24.28
2022-08-11T21:45:20.919Z,24.33
2022-08-11T21:48:44.674Z,24.36
2022-08-11T21:52:05.863Z,24.38
2022-08-11T21:55:27.999Z,24.37
2022-08-11T21:58:50.865Z,24.38
2022-08-11T22:02:13.017Z,24.38
2022-08-11T22:05:36.028Z,24.38
2022-08-11T22:08:56.727Z,24.37
2022-08-11T22:12:34.352Z,24.41
2022-08-11T22:15:57.664Z,24.42
2022-08-11T22:19:19.976Z,24.38
2022-08-11T22:22:52.315Z,24.42
2022-08-11T22:26:14.142Z,24.40
2022-08-11T22:29:50.618Z,24.36
2022-08-11T22:33:15.011Z,24.34
2022-08-11T22:36:37.096Z,24.32
2022-08-11T22:40:02.122Z,24.35
2022-08-11T22:43:24.860Z,24.32
2022-08-11T22:46:47.272Z,24.30
2022-08-11T22:50:14.158Z,24.25
2022-08-11T22:53:58.455Z,24.26
2022-08-11T22:57:18.239Z,24.25
2022-08-11T23:00:39.031Z,24.21
2022-08-11T23:03:59.793Z,24.14
2022-08-11T23:07:49.917Z,24.10
2022-08-11T23:11:02.515Z,24.17
2022-08-11T23:14:23.354Z,24.10
2022-08-11T23:17:45.742Z,24.08
2022-08-11T23:21:06.671Z,24.06
2022-08-11T23:24:29.101Z,24.17
2022-08-11T23:27:53.562Z,24.17
2022-08-11T23:31:18.172Z,24.22
2022-08-11T23:35:37.246Z,24.16
2022-08-11T23:38:28.734Z,24.28
2022-08-11T23:41:49.867Z,24.29
2022-08-11T23:45:10.556Z,24.27
2022-08-11T23:48:35.341Z,24.27
2022-08-11T23:51:58.939Z,24.24
2022-08-11T23:55:20.294Z,24.23
2022-08-11T23:58:40.908Z,24.16
